Time;durP1;ratioP1;P1;durP2;ratioP2;P2;SDS_P1;SDS_P2;PMS_P1;PMS_P2;Temp;Humidity;BMP_temperature;BMP_pressure;BME280_temperature;BME280_humidity;BME280_pressure;Samples;Min_cycle;Max_cycle;Signal;HPM_P1;HPM_P2
2023/01/14 00:01:06;;;;;;;36.40;23.85;;;7.60;91.80;;;;;;6305028;22;20007;-87
2023/01/14 00:03:32;;;;;;;39.95;25.83;;;7.60;91.50;;;;;;6307005;22;20006;-87
2023/01/14 00:05:59;;;;;;;39.30;24.63;;;7.70;91.50;;;;;;6307035;22;19999;-87
2023/01/14 00:08:26;;;;;;;36.75;23.88;;;7.70;91.40;;;;;;6306627;22;20024;-87
2023/01/14 00:10:52;;;;;;;34.05;23.02;;;7.80;91.40;;;;;;6307287;22;20003;-89
2023/01/14 00:13:17;;;;;;;32.83;22.67;;;7.70;91.40;;;;;;6307036;22;19999;-87
2023/01/14 00:15:54;;;;;;;36.35;22.13;;;7.80;91.40;;;;;;6307532;22;20000;-86
2023/01/14 00:18:20;;;;;;;41.28;24.65;;;7.80;91.30;;;;;;6303982;22;20006;-85
2023/01/14 00:21:09;;;;;;;38.47;24.40;;;7.90;91.30;;;;;;6304903;22;20080;-86
2023/01/14 00:23:35;;;;;;;38.08;22.58;;;7.70;91.10;;;;;;6305550;22;20035;-85
2023/01/14 00:26:10;;;;;;;34.60;21.23;;;7.60;91.30;;;;;;6306385;22;20007;-90
2023/01/14 00:28:35;;;;;;;39.85;24.77;;;7.70;91.40;;;;;;6306671;22;19999;-90
2023/01/14 00:31:06;;;;;;;41.33;25.17;;;7.70;91.10;;;;;;6307600;22;20006;-90
2023/01/14 00:33:33;;;;;;;38.05;25.00;;;7.60;91.20;;;;;;6279929;22;20367;-90
2023/01/14 00:35:59;;;;;;;31.88;20.50;;;7.50;91.30;;;;;;6307424;22;20070;-90
2023/01/14 00:38:25;;;;;;;30.52;19.90;;;7.50;91.40;;;;;;6279637;22;20041;-91
2023/01/14 00:41:04;;;;;;;30.67;20.77;;;7.50;91.30;;;;;;6308441;22;19999;-93
2023/01/14 00:43:30;;;;;;;31.40;20.95;;;7.50;91.30;;;;;;6307701;22;20021;-92
2023/01/14 00:45:56;;;;;;;31.52;22.27;;;7.50;91.30;;;;;;6307986;22;20082;-92
2023/01/14 00:48:21;;;;;;;39.25;25.33;;;7.40;91.20;;;;;;6307630;22;20052;-93
2023/01/14 00:50:47;;;;;;;40.38;24.35;;;7.10;91.50;;;;;;6309227;22;20003;-96
2023/01/14 00:53:13;;;;;;;28.85;20.42;;;7.10;91.60;;;;;;6308114;22;20006;-91
2023/01/14 00:55:38;;;;;;;34.78;22.92;;;7.10;91.70;;;;;;6307434;22;20000;-91
2023/01/14 00:58:04;;;;;;;34.90;21.40;;;7.20;91.60;;;;;;6305820;22;20037;-91
2023/01/14 01:00:30;;;;;;;39.30;22.52;;;7.20;91.60;;;;;;6307528;22;20009;-91
2023/01/14 01:02:57;;;;;;;38.55;24.95;;;7.20;91.50;;;;;;6307168;22;20007;-90
2023/01/14 01:05:23;;;;;;;38.15;25.48;;;7.30;91.40;;;;;;6307015;22;20123;-89
2023/01/14 01:07:49;;;;;;;41.75;27.77;;;7.10;91.60;;;;;;6306905;22;19995;-88
2023/01/14 01:10:15;;;;;;;35.58;22.67;;;7.20;91.40;;;;;;6307792;22;20003;-90
2023/01/14 01:12:40;;;;;;;45.13;27.42;;;7.20;91.50;;;;;;6308010;22;20052;-90
2023/01/14 01:15:06;;;;;;;38.53;26.85;;;7.10;91.50;;;;;;6308419;22;20088;-90
2023/01/14 01:17:32;;;;;;;38.13;24.33;;;7.10;91.80;;;;;;6309966;22;19999;-91
2023/01/14 01:19:58;;;;;;;37.13;23.10;;;7.10;91.60;;;;;;6309962;22;20079;-92
2023/01/14 01:22:23;;;;;;;32.92;23.65;;;7.10;91.50;;;;;;6309960;22;20325;-92
2023/01/14 01:24:51;;;;;;;41.75;27.00;;;7.10;91.50;;;;;;6309710;22;20054;-92
2023/01/14 01:27:16;;;;;;;44.53;27.95;;;7.10;91.30;;;;;;6309241;22;20008;-92
2023/01/14 01:29:42;;;;;;;37.50;25.05;;;7.00;91.30;;;;;;6309777;22;20371;-91
2023/01/14 01:32:08;;;;;;;32.33;22.52;;;6.90;91.50;;;;;;6309722;22;20007;-92
2023/01/14 01:34:33;;;;;;;32.83;22.58;;;7.00;91.60;;;;;;6309855;22;20038;-92
2023/01/14 01:36:59;;;;;;;44.45;27.00;;;6.90;91.60;;;;;;6309933;22;20006;-91
2023/01/14 01:39:25;;;;;;;41.67;28.08;;;6.90;91.50;;;;;;6309483;22;20003;-92
2023/01/14 01:41:50;;;;;;;38.28;22.70;;;6.80;91.50;;;;;;6309442;22;20090;-92
2023/01/14 01:44:16;;;;;;;33.92;22.83;;;6.80;91.70;;;;;;6309433;22;20096;-91
2023/01/14 01:46:42;;;;;;;39.40;24.35;;;6.80;91.70;;;;;;6310933;22;20006;-95
2023/01/14 01:49:13;;;;;;;35.58;23.98;;;6.80;91.60;;;;;;6310490;22;20023;-95
2023/01/14 01:51:52;;;;;;;35.28;23.17;;;6.80;91.50;;;;;;6310592;22;20053;-95
2023/01/14 01:54:21;;;;;;;35.88;22.08;;;6.80;91.60;;;;;;6309727;22;20057;-91
2023/01/14 01:56:48;;;;;;;33.40;22.13;;;6.90;91.60;;;;;;6309996;22;19999;-92
2023/01/14 01:59:18;;;;;;;34.60;22.80;;;7.00;91.50;;;;;;6282551;22;20490;-91
2023/01/14 02:01:45;;;;;;;34.70;21.15;;;7.10;91.40;;;;;;6309875;22;19999;-92
2023/01/14 02:04:12;;;;;;;31.20;21.02;;;7.20;91.20;;;;;;6309549;22;20075;-91
2023/01/14 02:06:37;;;;;;;30.15;20.08;;;7.20;91.10;;;;;;6310079;22;20003;-91
2023/01/14 02:09:04;;;;;;;33.30;21.83;;;7.20;91.10;;;;;;6309343;22;20333;-90
2023/01/14 02:11:51;;;;;;;32.83;23.35;;;7.20;90.60;;;;;;6307784;22;20338;-90
2023/01/14 02:14:28;;;;;;;29.50;19.85;;;7.20;90.70;;;;;;6309186;22;20426;-92
2023/01/14 02:17:33;;;;;;;32.90;20.60;;;7.10;90.80;;;;;;6309580;22;20299;-89
2023/01/14 02:20:02;;;;;;;34.95;23.48;;;7.10;90.80;;;;;;6306104;22;20007;-88
2023/01/14 02:22:33;;;;;;;39.05;25.55;;;7.00;90.70;;;;;;6308043;22;20402;-85
2023/01/14 02:25:31;;;;;;;26.02;19.40;;;6.70;91.00;;;;;;6308257;22;20012;-85
2023/01/14 02:28:49;;;;;;;35.20;23.00;;;6.80;91.20;;;;;;6305893;22;20015;-85
2023/01/14 02:31:39;;;;;;;31.67;20.40;;;6.80;91.00;;;;;;6234613;22;20404;-87
2023/01/14 02:34:08;;;;;;;;;;;6.70;91.10;;;;;;6308997;22;20027;-88
2023/01/14 02:36:47;;;;;;;28.33;18.88;;;6.80;91.20;;;;;;6308070;22;19899;-88
2023/01/14 02:39:35;;;;;;;31.00;21.02;;;6.80;90.90;;;;;;6307695;22;19999;-87
2023/01/14 02:45:36;;;;;;;26.00;17.27;;;6.90;90.90;;;;;;6307076;22;20056;-87
2023/01/14 02:48:04;;;;;;;29.25;18.92;;;6.80;91.10;;;;;;6307284;22;20426;-86
2023/01/14 02:50:31;;;;;;;36.78;24.35;;;6.80;91.00;;;;;;6306856;22;20031;-86
2023/01/14 02:52:57;;;;;;;28.85;18.63;;;6.60;90.70;;;;;;6307080;22;20014;-86
2023/01/14 02:55:36;;;;;;;30.80;20.67;;;6.60;91.10;;;;;;6306071;22;20383;-86
2023/01/14 02:58:46;;;;;;;27.63;18.50;;;6.60;91.10;;;;;;6305418;22;20015;-86
2023/01/14 03:01:30;;;;;;;37.47;22.35;;;6.70;91.00;;;;;;6308003;22;20403;-86
2023/01/14 03:04:14;;;;;;;32.30;20.02;;;6.60;90.90;;;;;;6307088;22;20152;-85
2023/01/14 03:06:48;;;;;;;32.28;20.00;;;6.70;91.00;;;;;;6307712;22;20026;-86
2023/01/14 03:09:32;;;;;;;36.05;23.92;;;6.60;90.90;;;;;;6307284;22;19999;-85
2023/01/14 03:12:13;;;;;;;29.75;20.13;;;6.50;90.90;;;;;;6306951;22;20066;-86
2023/01/14 03:14:50;;;;;;;29.50;18.85;;;6.40;91.00;;;;;;6307474;22;20006;-86
2023/01/14 03:17:33;;;;;;;27.35;17.90;;;6.40;91.30;;;;;;6307537;22;19999;-87
2023/01/14 03:20:10;;;;;;;33.22;21.30;;;6.50;91.20;;;;;;6307166;22;20329;-88
2023/01/14 03:22:40;;;;;;;28.30;17.70;;;6.60;90.90;;;;;;6307757;22;20294;-87
2023/01/14 03:25:08;;;;;;;30.48;19.10;;;6.60;91.00;;;;;;6307936;22;20414;-87
2023/01/14 03:27:36;;;;;;;31.73;20.85;;;6.70;91.10;;;;;;6306878;22;19999;-87
2023/01/14 03:30:14;;;;;;;32.00;20.20;;;6.70;91.10;;;;;;6306818;22;20003;-86
2023/01/14 03:32:44;;;;;;;27.27;18.15;;;6.70;90.90;;;;;;6305585;22;20010;-89
2023/01/14 03:35:18;;;;;;;28.55;19.13;;;6.80;90.90;;;;;;6307407;22;19999;-90
2023/01/14 03:37:58;;;;;;;30.05;18.80;;;6.80;90.90;;;;;;6307112;22;20002;-89
2023/01/14 03:40:26;;;;;;;;;;;6.90;90.80;;;;;;6307266;22;20023;-89
2023/01/14 03:43:00;;;;;;;28.50;18.85;;;6.90;90.80;;;;;;6306336;22;19903;-90
2023/01/14 03:45:35;;;;;;;29.17;17.27;;;6.80;90.60;;;;;;6274607;22;20345;-90
2023/01/14 03:48:02;;;;;;;28.95;18.63;;;6.80;90.80;;;;;;6276031;22;20004;-90
2023/01/14 03:51:01;;;;;;;27.52;19.42;;;6.80;90.70;;;;;;6275905;22;20412;-90
2023/01/14 03:53:45;;;;;;;32.92;21.27;;;6.70;90.70;;;;;;6275785;22;20046;-87
2023/01/14 03:56:30;;;;;;;31.88;20.70;;;6.50;90.70;;;;;;6274752;22;20003;-87
2023/01/14 03:59:04;;;;;;;29.80;19.50;;;6.60;90.90;;;;;;6274700;22;20006;-87
2023/01/14 04:01:39;;;;;;;36.92;21.45;;;6.60;91.00;;;;;;6272826;22;20314;-86
2023/01/14 04:04:06;;;;;;;33.35;23.15;;;6.60;91.00;;;;;;6275501;22;20000;-87
2023/01/14 04:06:31;;;;;;;29.60;20.25;;;6.60;90.80;;;;;;6275003;22;19999;-87
2023/01/14 04:08:57;;;;;;;32.08;20.02;;;6.60;90.90;;;;;;6275868;22;20007;-87
2023/01/14 04:11:23;;;;;;;32.13;21.08;;;6.60;90.90;;;;;;6274936;22;19999;-87
2023/01/14 04:16:33;;;;;;;28.75;19.55;;;6.60;90.70;;;;;;6276378;22;20061;-86
2023/01/14 04:18:58;;;;;;;31.35;20.15;;;6.60;90.90;;;;;;6276097;22;20436;-86
2023/01/14 04:21:24;;;;;;;33.28;20.85;;;6.70;90.90;;;;;;6275994;22;20007;-86
2023/01/14 04:23:50;;;;;;;29.88;20.38;;;6.70;90.90;;;;;;6276154;22;20437;-86
2023/01/14 04:26:15;;;;;;;30.42;20.77;;;6.80;90.80;;;;;;6276002;22;20007;-86
2023/01/14 04:28:41;;;;;;;24.33;18.48;;;6.80;90.60;;;;;;6275841;22;20078;-86
2023/01/14 04:31:07;;;;;;;27.15;19.80;;;6.50;90.80;;;;;;6276025;22;20003;-86
2023/01/14 04:33:32;;;;;;;27.75;19.10;;;6.60;90.90;;;;;;6276319;22;20014;-86
2023/01/14 04:35:58;;;;;;;28.92;19.63;;;6.60;91.00;;;;;;6276100;22;20010;-87
2023/01/14 04:38:24;;;;;;;30.92;19.73;;;6.60;90.90;;;;;;6276079;22;20306;-88
2023/01/14 04:40:52;;;;;;;34.90;22.77;;;6.70;90.90;;;;;;6276084;22;20053;-88
2023/01/14 04:43:18;;;;;;;26.17;18.35;;;6.70;90.80;;;;;;6280525;22;20326;-87
2023/01/14 04:45:44;;;;;;;23.83;17.15;;;6.60;90.70;;;;;;6307489;22;20096;-87
2023/01/14 04:48:10;;;;;;;26.50;19.88;;;6.60;90.60;;;;;;6307357;22;19996;-88
2023/01/14 04:50:44;;;;;;;30.38;21.42;;;6.60;90.80;;;;;;6308290;22;20002;-86
2023/01/14 04:53:13;;;;;;;29.45;20.10;;;6.70;90.80;;;;;;6308978;22;20425;-87
2023/01/14 04:55:40;;;;;;;30.92;20.60;;;6.70;90.70;;;;;;6309194;22;20437;-88
2023/01/14 04:58:09;;;;;;;29.00;19.25;;;6.70;90.70;;;;;;6308295;22;20098;-88
2023/01/14 05:00:35;;;;;;;30.77;20.80;;;6.80;90.70;;;;;;6309276;22;19999;-89
2023/01/14 05:03:03;;;;;;;25.80;18.60;;;6.80;90.70;;;;;;6309282;22;20007;-90
2023/01/14 05:05:29;;;;;;;26.98;19.52;;;6.90;90.70;;;;;;6309150;22;20469;-89
2023/01/14 05:07:54;;;;;;;28.23;19.92;;;6.90;90.50;;;;;;6308743;22;20019;-88
2023/01/14 05:10:20;;;;;;;28.90;20.13;;;6.90;90.50;;;;;;6309356;22;19999;-88
2023/01/14 05:12:58;;;;;;;30.08;19.42;;;6.90;90.50;;;;;;6308612;22;20000;-89
2023/01/14 05:15:33;;;;;;;27.67;18.80;;;7.00;90.40;;;;;;6308954;22;20008;-88
2023/01/14 05:17:59;;;;;;;27.70;19.40;;;;;;;;;;6309060;22;20065;-89
2023/01/14 05:20:26;;;;;;;25.20;18.15;;;7.00;90.20;;;;;;6309062;22;19999;-87
2023/01/14 05:22:57;;;;;;;27.30;19.80;;;7.00;90.40;;;;;;6308568;22;20010;-88
2023/01/14 05:25:23;;;;;;;28.83;17.85;;;7.00;90.40;;;;;;6308742;22;20053;-89
2023/01/14 05:27:49;;;;;;;25.73;18.00;;;7.10;90.40;;;;;;6308037;22;20068;-88
2023/01/14 05:30:15;;;;;;;24.00;17.17;;;7.10;90.40;;;;;;6308710;22;20422;-88
2023/01/14 05:32:41;;;;;;;22.92;15.40;;;7.10;90.40;;;;;;6308674;22;20270;-88
2023/01/14 05:35:07;;;;;;;23.15;15.05;;;7.10;90.40;;;;;;6309127;22;20294;-86
2023/01/14 05:37:33;;;;;;;20.33;13.75;;;7.10;90.40;;;;;;6308410;22;20007;-87
2023/01/14 05:39:59;;;;;;;19.27;13.25;;;7.20;90.50;;;;;;6308690;22;20425;-87
2023/01/14 05:47:57;;;;;;;15.77;10.63;;;7.30;90.40;;;;;;6308544;22;20078;-86
2023/01/14 05:50:23;;;;;;;18.38;10.68;;;7.30;90.40;;;;;;6308475;22;20414;-86
2023/01/14 05:52:48;;;;;;;21.23;10.82;;;7.30;90.30;;;;;;6308154;22;20051;-84
2023/01/14 05:55:14;;;;;;;14.60;10.45;;;7.30;90.20;;;;;;6308200;22;20317;-84
2023/01/14 05:57:40;;;;;;;20.20;11.43;;;7.40;90.10;;;;;;6307536;22;20326;-84
2023/01/14 06:00:06;;;;;;;17.27;11.45;;;;;;;;;;6306613;22;20014;-81
2023/01/14 06:08:03;;;;;;;17.30;10.52;;;7.40;89.50;;;;;;6307751;22;20388;-83
2023/01/14 06:10:29;;;;;;;14.52;10.25;;;7.40;89.50;;;;;;6306633;22;20006;-82
2023/01/14 06:12:58;;;;;;;13.85;9.48;;;7.40;89.10;;;;;;6306093;22;19995;-82
2023/01/14 06:15:33;;;;;;;14.07;9.65;;;7.40;89.50;;;;;;6307135;22;20030;-82
2023/01/14 06:18:09;;;;;;;16.45;10.18;;;7.40;89.50;;;;;;6307406;22;20003;-81
2023/01/14 06:20:36;;;;;;;13.85;9.43;;;7.40;89.50;;;;;;6307972;22;20359;-82
2023/01/14 06:23:03;;;;;;;13.35;8.52;;;7.40;89.50;;;;;;6306907;22;19999;-81
2023/01/14 06:25:29;;;;;;;13.10;8.88;;;7.40;89.30;;;;;;6306494;22;20003;-83
2023/01/14 06:27:57;;;;;;;12.48;8.65;;;7.50;89.30;;;;;;6305683;22;19995;-80
2023/01/14 06:30:23;;;;;;;12.82;8.52;;;7.50;89.00;;;;;;6280871;22;20000;-88
2023/01/14 06:32:49;;;;;;;11.93;8.27;;;7.40;89.40;;;;;;6281317;22;19999;-87
2023/01/14 06:35:15;;;;;;;15.10;8.50;;;7.40;89.10;;;;;;6308134;22;20078;-88
2023/01/14 06:37:44;;;;;;;15.30;9.90;;;7.40;89.50;;;;;;6308049;22;20004;-88
2023/01/14 06:40:11;;;;;;;14.13;9.93;;;7.30;88.90;;;;;;6307854;22;20014;-87
2023/01/14 06:42:36;;;;;;;13.95;9.52;;;7.30;89.40;;;;;;6308174;22;20015;-81
2023/01/14 06:45:02;;;;;;;13.93;8.90;;;7.30;89.70;;;;;;6307538;22;20046;-81
2023/01/14 06:47:28;;;;;;;13.63;10.13;;;7.20;89.60;;;;;;6305956;22;20003;-82
2023/01/14 06:49:54;;;;;;;15.05;10.30;;;7.10;90.00;;;;;;6305546;22;19999;-81
2023/01/14 06:52:21;;;;;;;15.15;10.35;;;7.20;89.80;;;;;;6304063;22;20053;-81
2023/01/14 06:54:47;;;;;;;16.13;11.13;;;7.20;90.00;;;;;;6303757;22;20129;-80
2023/01/14 06:57:13;;;;;;;15.63;11.05;;;7.00;90.10;;;;;;6306074;22;20000;-78
2023/01/14 06:59:39;;;;;;;17.10;11.15;;;7.00;90.00;;;;;;6306392;22;20076;-81
2023/01/14 07:02:09;;;;;;;21.50;13.95;;;7.00;89.90;;;;;;6305634;22;19999;-78
2023/01/14 07:04:35;;;;;;;18.35;12.77;;;6.80;90.00;;;;;;6306841;22;20003;-79
2023/01/14 07:07:11;;;;;;;23.13;15.88;;;6.80;90.10;;;;;;6306992;22;20066;-79
2023/01/14 07:09:37;;;;;;;24.60;14.57;;;6.60;90.00;;;;;;6304822;22;20015;-90
2023/01/14 07:12:03;;;;;;;26.50;16.30;;;6.60;90.20;;;;;;6307780;22;20007;-80
2023/01/14 07:14:29;;;;;;;29.02;20.73;;;6.60;90.40;;;;;;6305477;22;20000;-79
2023/01/14 07:16:54;;;;;;;28.67;18.83;;;6.40;90.30;;;;;;6307065;22;20318;-79
2023/01/14 07:19:20;;;;;;;30.15;20.67;;;6.50;90.60;;;;;;6307172;22;20015;-79
2023/01/14 07:21:46;;;;;;;28.92;20.70;;;6.30;90.50;;;;;;6306501;22;20030;-78
2023/01/14 07:24:12;;;;;;;27.00;16.88;;;6.30;90.60;;;;;;6306274;22;20078;-80
2023/01/14 07:26:38;;;;;;;28.17;18.88;;;6.20;90.70;;;;;;6307123;22;20003;-74
2023/01/14 07:29:03;;;;;;;27.65;17.52;;;6.30;90.60;;;;;;6305999;22;20531;-77
2023/01/14 07:31:29;;;;;;;25.98;17.50;;;6.30;90.50;;;;;;6306589;22;19999;-77
2023/01/14 07:33:55;;;;;;;29.77;17.95;;;6.30;90.50;;;;;;6306886;22;19999;-77
2023/01/14 07:36:21;;;;;;;24.38;16.33;;;6.40;90.50;;;;;;6306175;22;20424;-79
2023/01/14 07:38:46;;;;;;;23.98;16.38;;;6.40;90.50;;;;;;6306195;22;20017;-79
2023/01/14 07:41:18;;;;;;;27.73;18.27;;;6.40;90.60;;;;;;6306600;22;20011;-79
2023/01/14 07:43:46;;;;;;;23.80;16.27;;;6.40;90.50;;;;;;6306139;22;20061;-77
2023/01/14 07:46:12;;;;;;;25.05;17.00;;;6.40;90.40;;;;;;6306522;22;20006;-75
2023/01/14 07:48:38;;;;;;;24.60;17.17;;;6.50;90.30;;;;;;6306062;22;19999;-85
2023/01/14 07:51:05;;;;;;;26.92;17.95;;;6.50;90.20;;;;;;6305684;22;19999;-85
2023/01/14 07:53:31;;;;;;;27.85;19.13;;;6.50;90.30;;;;;;6306272;22;20421;-85
2023/01/14 07:56:00;;;;;;;29.02;18.73;;;6.30;90.30;;;;;;6304099;22;20007;-78
2023/01/14 07:58:26;;;;;;;21.40;15.50;;;6.30;90.40;;;;;;6306355;22;20070;-78
2023/01/14 08:00:53;;;;;;;25.73;17.10;;;6.40;90.50;;;;;;6306373;22;20350;-78
2023/01/14 08:03:18;;;;;;;25.95;16.63;;;6.30;90.60;;;;;;6306342;22;20034;-79
2023/01/14 08:05:44;;;;;;;23.80;17.00;;;6.40;90.50;;;;;;6305944;22;19999;-79
2023/01/14 08:08:10;;;;;;;25.42;17.55;;;6.50;90.50;;;;;;6306912;22;19996;-79
2023/01/14 08:10:36;;;;;;;23.77;17.02;;;6.60;90.50;;;;;;6306161;22;20027;-78
2023/01/14 08:13:01;;;;;;;24.05;17.35;;;6.80;90.40;;;;;;6278876;22;20007;-79
2023/01/14 08:15:27;;;;;;;25.52;16.52;;;6.80;90.00;;;;;;6279299;22;20027;-84
2023/01/14 08:17:56;;;;;;;23.17;15.85;;;6.80;90.20;;;;;;6306744;22;20052;-83
2023/01/14 08:20:23;;;;;;;19.98;14.52;;;6.90;90.20;;;;;;6306484;22;20011;-83
2023/01/14 08:22:59;;;;;;;22.73;15.50;;;6.90;90.20;;;;;;6306790;22;20033;-83
2023/01/14 08:25:26;;;;;;;20.23;14.63;;;7.00;90.30;;;;;;6306223;22;20060;-84
2023/01/14 08:27:51;;;;;;;21.33;15.18;;;7.10;90.20;;;;;;6306815;22;19995;-83
2023/01/14 08:30:17;;;;;;;20.42;15.35;;;7.20;90.20;;;;;;6306749;22;20011;-83
2023/01/14 08:32:43;;;;;;;22.35;15.50;;;7.10;89.50;;;;;;6307003;22;20010;-84
2023/01/14 08:35:09;;;;;;;20.08;14.50;;;7.10;89.00;;;;;;6307027;22;20425;-83
2023/01/14 08:37:35;;;;;;;21.45;14.88;;;7.10;89.90;;;;;;6306964;22;20010;-83
2023/01/14 08:40:01;;;;;;;19.17;13.05;;;7.10;89.70;;;;;;6307294;22;19999;-83
2023/01/14 08:42:27;;;;;;;20.23;14.25;;;7.10;90.00;;;;;;6306531;22;20004;-84
2023/01/14 08:44:53;;;;;;;20.23;12.95;;;7.20;90.00;;;;;;6306568;22;20034;-83
2023/01/14 08:47:18;;;;;;;21.02;14.20;;;7.30;90.00;;;;;;6307142;22;20433;-83
2023/01/14 08:49:44;;;;;;;20.88;14.05;;;7.40;90.10;;;;;;6279287;22;20321;-83
2023/01/14 08:52:10;;;;;;;21.92;14.80;;;7.50;90.00;;;;;;6278827;22;20086;-82
2023/01/14 08:54:35;;;;;;;24.10;15.65;;;7.70;90.00;;;;;;6305576;22;20029;-84
2023/01/14 08:57:01;;;;;;;20.17;14.65;;;7.90;88.90;;;;;;6306477;22;20000;-84
2023/01/14 08:59:27;;;;;;;21.13;14.88;;;8.10;90.00;;;;;;6305916;22;20003;-84
2023/01/14 09:01:53;;;;;;;19.52;13.90;;;8.30;87.40;;;;;;6306531;22;19999;-86
2023/01/14 09:04:19;;;;;;;20.80;13.65;;;8.30;88.50;;;;;;6306718;22;20003;-83
2023/01/14 09:17:42;;;;;;;20.50;14.63;;;8.90;87.00;;;;;;6304906;22;20444;-85
2023/01/14 09:20:11;;;;;;;21.20;14.02;;;9.00;86.60;;;;;;6306095;22;20000;-85
2023/01/14 09:22:36;;;;;;;22.35;16.13;;;9.00;86.40;;;;;;6305462;22;20010;-83
2023/01/14 09:25:02;;;;;;;20.05;14.35;;;9.10;85.70;;;;;;6304875;22;19999;-84
2023/01/14 09:27:30;;;;;;;20.92;14.88;;;9.10;85.10;;;;;;6277644;22;20003;-86
2023/01/14 09:29:55;;;;;;;22.25;13.68;;;9.20;85.30;;;;;;6305620;22;19999;-85
2023/01/14 09:32:21;;;;;;;16.77;13.13;;;9.20;86.50;;;;;;6306342;22;20068;-85
2023/01/14 09:34:49;;;;;;;20.17;13.88;;;9.40;86.30;;;;;;6306014;22;20072;-86
2023/01/14 09:37:20;;;;;;;15.02;11.23;;;9.60;85.80;;;;;;6306762;22;20000;-84
2023/01/14 09:39:50;;;;;;;14.00;11.13;;;9.60;85.20;;;;;;6307769;22;19996;-84
2023/01/14 09:42:27;;;;;;;16.63;10.27;;;9.80;85.50;;;;;;6307918;22;19991;-85
2023/01/14 09:45:02;;;;;;;16.23;9.55;;;9.80;83.10;;;;;;6302085;22;20018;-79
2023/01/14 09:47:28;;;;;;;11.57;7.90;;;9.90;84.00;;;;;;6299035;22;20027;-81
2023/01/14 09:49:54;;;;;;;11.65;7.60;;;10.00;83.00;;;;;;6295101;22;20027;-81
2023/01/14 09:53:01;;;;;;;11.43;7.88;;;9.90;83.00;;;;;;6305331;22;19999;-83
2023/01/14 09:55:33;;;;;;;11.93;7.43;;;9.70;82.40;;;;;;6301753;22;20008;-83
2023/01/14 09:58:16;;;;;;;8.10;6.22;;;9.80;82.00;;;;;;6303436;22;20017;-84
2023/01/14 10:00:56;;;;;;;9.55;6.60;;;9.90;83.00;;;;;;6301645;22;20083;-85
2023/01/14 10:03:37;;;;;;;9.10;6.30;;;10.10;81.50;;;;;;6305083;22;20014;-87
2023/01/14 10:06:15;;;;;;;7.78;5.43;;;10.30;83.40;;;;;;6306347;22;20003;-85
2023/01/14 10:08:45;;;;;;;11.75;6.90;;;10.60;83.10;;;;;;6306275;22;20094;-85
2023/01/14 10:11:13;;;;;;;8.88;6.78;;;10.80;80.30;;;;;;6306144;22;19996;-85
2023/01/14 10:13:53;;;;;;;10.73;6.28;;;10.80;80.10;;;;;;6305244;22;20007;-85
2023/01/14 10:16:38;;;;;;;7.35;5.20;;;10.90;80.50;;;;;;6307411;22;20003;-85
2023/01/14 10:19:17;;;;;;;6.40;5.40;;;11.10;81.40;;;;;;6278620;22;20083;-86
2023/01/14 10:21:47;;;;;;;8.75;5.60;;;11.50;81.90;;;;;;6304735;22;20003;-84
2023/01/14 10:24:14;;;;;;;;;;;11.70;82.30;;;;;;6307662;22;20003;-83
2023/01/14 10:26:42;;;;;;;5.45;4.50;;;11.90;81.80;;;;;;6304523;22;20225;-79
2023/01/14 10:29:15;;;;;;;6.93;4.43;;;12.20;81.90;;;;;;6306971;22;19995;-81
2023/01/14 10:31:48;;;;;;;8.40;4.20;;;12.60;81.60;;;;;;6306846;22;20064;-82
2023/01/14 10:34:26;;;;;;;5.95;4.05;;;13.00;81.40;;;;;;6306673;22;20410;-82
2023/01/14 10:36:52;;;;;;;6.60;3.88;;;13.20;79.90;;;;;;6306971;22;20078;-81
2023/01/14 10:39:18;;;;;;;4.95;4.07;;;13.40;79.80;;;;;;6306972;22;20389;-81
2023/01/14 10:41:49;;;;;;;13.65;5.32;;;13.60;78.40;;;;;;6307169;22;20078;-82
2023/01/14 10:44:29;;;;;;;12.50;5.53;;;13.80;80.40;;;;;;6307131;22;20018;-81
2023/01/14 10:47:13;;;;;;;6.22;4.50;;;14.20;83.20;;;;;;6305535;22;19999;-81
2023/01/14 10:49:45;;;;;;;5.82;4.20;;;14.60;80.60;;;;;;6278974;22;20007;-82
2023/01/14 10:52:25;;;;;;;4.57;3.60;;;14.70;77.10;;;;;;6307394;22;20468;-82
2023/01/14 10:55:12;;;;;;;5.28;3.65;;;14.80;78.90;;;;;;6307482;22;20003;-82
2023/01/14 10:58:01;;;;;;;5.38;4.07;;;14.90;78.00;;;;;;6307528;22;20030;-82
2023/01/14 11:00:37;;;;;;;6.35;3.97;;;15.10;77.00;;;;;;6307761;22;20429;-81
2023/01/14 11:03:25;;;;;;;7.63;3.80;;;15.30;75.70;;;;;;6307070;22;20019;-82
2023/01/14 11:06:04;;;;;;;4.32;3.22;;;15.20;68.10;;;;;;6306901;22;20003;-82
2023/01/14 11:08:37;;;;;;;4.93;3.33;;;15.00;72.20;;;;;;6305654;22;20000;-82
2023/01/14 11:11:05;;;;;;;4.55;3.40;;;15.10;73.50;;;;;;6307020;22;19999;-82
2023/01/14 11:13:44;;;;;;;6.05;3.50;;;15.20;73.70;;;;;;6305843;22;20015;-83
2023/01/14 11:16:21;;;;;;;5.95;3.75;;;15.40;73.50;;;;;;6306860;22;19995;-83
2023/01/14 11:19:16;;;;;;;6.68;4.32;;;15.60;72.60;;;;;;6306130;22;20144;-82
2023/01/14 11:21:44;;;;;;;6.25;3.95;;;15.80;72.70;;;;;;6299374;22;20023;-84
2023/01/14 11:24:37;;;;;;;6.65;4.68;;;16.00;72.30;;;;;;6303308;22;20003;-84
2023/01/14 11:27:12;;;;;;;5.28;3.88;;;16.00;71.40;;;;;;6306431;22;20070;-85
2023/01/14 11:29:44;;;;;;;5.28;3.85;;;16.00;68.20;;;;;;6305822;22;20414;-84
2023/01/14 11:32:17;;;;;;;6.35;3.42;;;16.00;69.80;;;;;;6307016;22;19995;-84
2023/01/14 11:34:46;;;;;;;5.80;3.97;;;16.10;69.70;;;;;;6305865;22;20003;-84
2023/01/14 11:37:18;;;;;;;4.65;3.65;;;16.00;70.00;;;;;;6305776;22;20070;-84
2023/01/14 11:39:56;;;;;;;3.45;2.58;;;16.20;70.20;;;;;;6305095;22;20007;-84
2023/01/14 11:42:41;;;;;;;5.45;3.42;;;16.40;70.30;;;;;;6305304;22;20011;-84
2023/01/14 11:45:13;;;;;;;4.70;3.50;;;16.70;67.20;;;;;;6305321;22;20430;-84
2023/01/14 11:47:50;;;;;;;3.88;3.33;;;16.80;67.40;;;;;;6305289;22;20026;-85
2023/01/14 11:50:22;;;;;;;4.22;2.60;;;16.80;68.50;;;;;;6305101;22;20000;-84
2023/01/14 11:53:18;;;;;;;4.05;3.00;;;17.20;69.00;;;;;;6305209;22;19996;-85
2023/01/14 11:55:47;;;;;;;3.75;2.38;;;17.60;62.80;;;;;;6306188;22;20026;-84
2023/01/14 11:58:25;;;;;;;2.50;2.25;;;17.80;65.50;;;;;;6305406;22;20007;-84
2023/01/14 12:01:05;;;;;;;3.05;2.72;;;18.60;63.60;;;;;;6306209;22;20003;-86
2023/01/14 12:04:02;;;;;;;3.58;2.70;;;19.40;60.90;;;;;;6303646;22;20353;-86
2023/01/14 12:06:43;;;;;;;4.43;3.03;;;20.10;60.20;;;;;;6304948;22;20321;-85
2023/01/14 12:09:18;;;;;;;5.20;3.70;;;21.00;58.80;;;;;;6305722;22;19996;-85
2023/01/14 12:12:18;;;;;;;3.90;3.03;;;21.30;53.90;;;;;;6305332;22;20003;-86
2023/01/14 12:17:49;;;;;;;3.33;2.90;;;20.90;53.80;;;;;;6306386;22;20014;-86
2023/01/14 12:20:19;;;;;;;3.90;3.38;;;20.90;56.00;;;;;;6304194;22;20053;-86
2023/01/14 12:22:51;;;;;;;4.45;3.30;;;20.70;54.40;;;;;;6306459;22;20003;-86
2023/01/14 12:25:24;;;;;;;5.30;2.92;;;20.80;57.00;;;;;;6304915;22;20007;-86
2023/01/14 12:28:02;;;;;;;3.58;3.17;;;21.10;56.40;;;;;;6306805;22;20121;-85
2023/01/14 12:30:43;;;;;;;3.65;3.00;;;21.40;56.00;;;;;;6306633;22;20015;-85
2023/01/14 12:33:09;;;;;;;3.80;2.75;;;21.00;53.20;;;;;;6306645;22;20141;-86
2023/01/14 12:35:43;;;;;;;4.18;3.08;;;20.70;55.00;;;;;;6296432;22;20492;-86
2023/01/14 12:47:27;;;;;;;4.38;2.90;;;19.70;56.80;;;;;;6294131;22;20019;-85
2023/01/14 12:49:53;;;;;;;7.28;3.05;;;19.80;59.10;;;;;;6303268;22;20011;-83
2023/01/14 12:52:33;;;;;;;3.28;1.98;;;20.60;58.60;;;;;;6305168;22;20421;-86
2023/01/14 12:54:59;;;;;;;;;;;20.90;57.80;;;;;;6305556;22;20077;-87
2023/01/14 12:57:27;;;;;;;3.72;2.20;;;21.40;56.40;;;;;;6304935;22;19909;-87
2023/01/14 13:00:26;;;;;;;4.38;2.38;;;21.70;55.90;;;;;;6305356;22;20000;-87
2023/01/14 13:02:54;;;;;;;2.85;2.35;;;21.10;52.90;;;;;;6294409;22;20007;-88
2023/01/14 13:05:34;;;;;;;4.28;2.80;;;21.20;55.60;;;;;;6307614;22;20074;-88
2023/01/14 13:08:37;;;;;;;2.67;2.30;;;21.40;55.30;;;;;;6307550;22;19996;-87
2023/01/14 13:11:23;;;;;;;3.35;2.88;;;21.70;55.30;;;;;;6307506;22;19996;-87
2023/01/14 13:13:54;;;;;;;4.65;2.95;;;22.10;54.90;;;;;;6308552;22;19995;-87
2023/01/14 13:16:35;;;;;;;4.10;3.53;;;21.60;50.80;;;;;;6307998;22;20078;-88
2023/01/14 13:19:04;;;;;;;4.15;2.97;;;21.60;51.90;;;;;;6308367;22;20053;-87
2023/01/14 13:22:00;;;;;;;4.07;3.25;;;21.60;54.30;;;;;;6307908;22;20497;-88
2023/01/14 13:24:37;;;;;;;3.22;2.90;;;22.00;54.30;;;;;;6306185;22;20363;-87
2023/01/14 13:27:38;;;;;;;2.75;2.53;;;22.20;54.40;;;;;;6307354;22;20411;-88
2023/01/14 13:30:27;;;;;;;4.18;3.55;;;21.90;53.40;;;;;;6309040;22;20659;-87
2023/01/14 13:32:59;;;;;;;4.07;3.17;;;21.50;52.20;;;;;;6299525;22;20027;-87
2023/01/14 13:35:26;;;;;;;5.03;3.28;;;20.90;53.50;;;;;;6308886;22;20357;-87
2023/01/14 13:37:53;;;;;;;3.33;3.03;;;20.70;54.20;;;;;;6308297;22;20003;-87
2023/01/14 13:40:28;;;;;;;4.28;2.95;;;20.40;54.70;;;;;;6308359;22;20372;-87
2023/01/14 13:43:04;;;;;;;3.80;2.83;;;20.00;55.20;;;;;;6308697;22;20056;-88